sensor_id;sensor_type;location;lat;lon;timestamp;temperature;humidity
38902;DHT22;24661;53.566;9.910;2022-10-30T00:02:02;14.10;99.90
38902;DHT22;24661;53.566;9.910;2022-10-30T00:04:28;14.10;99.90
38902;DHT22;24661;53.566;9.910;2022-10-30T00:06:53;14.00;99.90
38902;DHT22;24661;53.566;9.910;2022-10-30T00:09:19;14.00;99.90
38902;DHT22;24661;53.566;9.910;2022-10-30T00:11:44;14.00;99.90
38902;DHT22;24661;53.566;9.910;2022-10-30T00:14:10;14.00;99.90
38902;DHT22;24661;53.566;9.910;2022-10-30T00:16:36;14.00;99.90
38902;DHT22;24661;53.566;9.910;2022-10-30T00:19:01;14.00;99.90
38902;DHT22;24661;53.566;9.910;2022-10-30T00:21:27;13.90;99.90
38902;DHT22;24661;53.566;9.910;2022-10-30T00:23:53;13.80;99.90
38902;DHT22;24661;53.566;9.910;2022-10-30T00:26:20;13.80;99.90
38902;DHT22;24661;53.566;9.910;2022-10-30T00:28:50;13.80;99.90
38902;DHT22;24661;53.566;9.910;2022-10-30T00:31:16;13.70;99.90
38902;DHT22;24661;53.566;9.910;2022-10-30T00:33:41;13.70;99.90
38902;DHT22;24661;53.566;9.910;2022-10-30T00:36:07;13.70;99.90
38902;DHT22;24661;53.566;9.910;2022-10-30T00:38:33;13.70;99.90
38902;DHT22;24661;53.566;9.910;2022-10-30T00:40:59;13.70;99.90
38902;DHT22;24661;53.566;9.910;2022-10-30T00:43:42;13.70;99.90
38902;DHT22;24661;53.566;9.910;2022-10-30T00:46:30;13.60;99.90
38902;DHT22;24661;53.566;9.910;2022-10-30T00:49:05;13.60;99.90
38902;DHT22;24661;53.566;9.910;2022-10-30T00:51:34;13.50;99.90
38902;DHT22;24661;53.566;9.910;2022-10-30T00:54:02;13.50;99.90
38902;DHT22;24661;53.566;9.910;2022-10-30T00:56:30;13.50;99.90
38902;DHT22;24661;53.566;9.910;2022-10-30T00:58:59;13.50;99.90
38902;DHT22;24661;53.566;9.910;2022-10-30T01:01:27;13.50;99.90
38902;DHT22;24661;53.566;9.910;2022-10-30T01:03:59;13.40;99.90
38902;DHT22;24661;53.566;9.910;2022-10-30T01:06:25;13.40;99.90
38902;DHT22;24661;53.566;9.910;2022-10-30T01:08:53;13.40;99.90
38902;DHT22;24661;53.566;9.910;2022-10-30T01:11:19;13.40;99.90
38902;DHT22;24661;53.566;9.910;2022-10-30T01:13:47;13.30;99.90
38902;DHT22;24661;53.566;9.910;2022-10-30T01:22:51;13.30;99.90
38902;DHT22;24661;53.566;9.910;2022-10-30T01:25:24;13.30;99.90
38902;DHT22;24661;53.566;9.910;2022-10-30T01:31:15;13.30;99.90
38902;DHT22;24661;53.566;9.910;2022-10-30T01:39:26;13.40;99.90
38902;DHT22;24661;53.566;9.910;2022-10-30T01:41:52;13.40;99.90
38902;DHT22;24661;53.566;9.910;2022-10-30T01:44:25;13.40;99.90
38902;DHT22;24661;53.566;9.910;2022-10-30T01:49:58;13.40;99.90
38902;DHT22;24661;53.566;9.910;2022-10-30T01:52:41;13.40;99.90
38902;DHT22;24661;53.566;9.910;2022-10-30T01:55:21;13.40;99.90
38902;DHT22;24661;53.566;9.910;2022-10-30T01:58:15;13.30;99.90
38902;DHT22;24661;53.566;9.910;2022-10-30T02:00:44;13.30;99.90
38902;DHT22;24661;53.566;9.910;2022-10-30T02:03:13;13.30;99.90
38902;DHT22;24661;53.566;9.910;2022-10-30T02:05:49;13.30;99.90
38902;DHT22;24661;53.566;9.910;2022-10-30T02:08:15;13.30;99.90
38902;DHT22;24661;53.566;9.910;2022-10-30T02:10:42;13.20;99.90
38902;DHT22;24661;53.566;9.910;2022-10-30T02:13:09;13.20;99.90
38902;DHT22;24661;53.566;9.910;2022-10-30T02:15:34;13.20;99.90
38902;DHT22;24661;53.566;9.910;2022-10-30T02:18:01;13.10;99.90
38902;DHT22;24661;53.566;9.910;2022-10-30T02:20:27;13.10;99.90
38902;DHT22;24661;53.566;9.910;2022-10-30T02:22:53;13.10;99.90
38902;DHT22;24661;53.566;9.910;2022-10-30T02:25:18;13.00;99.90
38902;DHT22;24661;53.566;9.910;2022-10-30T02:27:44;13.00;99.90
38902;DHT22;24661;53.566;9.910;2022-10-30T02:30:10;13.00;99.90
38902;DHT22;24661;53.566;9.910;2022-10-30T02:32:36;12.90;99.90
38902;DHT22;24661;53.566;9.910;2022-10-30T02:35:02;12.90;99.90
38902;DHT22;24661;53.566;9.910;2022-10-30T02:37:28;12.90;99.90
38902;DHT22;24661;53.566;9.910;2022-10-30T02:39:54;12.90;99.90
38902;DHT22;24661;53.566;9.910;2022-10-30T02:42:19;12.90;99.90
38902;DHT22;24661;53.566;9.910;2022-10-30T02:44:45;12.90;99.90
38902;DHT22;24661;53.566;9.910;2022-10-30T02:47:10;12.90;99.90
38902;DHT22;24661;53.566;9.910;2022-10-30T02:49:36;12.90;99.90
38902;DHT22;24661;53.566;9.910;2022-10-30T02:52:02;12.90;99.90
38902;DHT22;24661;53.566;9.910;2022-10-30T02:54:27;12.90;99.90
38902;DHT22;24661;53.566;9.910;2022-10-30T02:56:53;12.80;99.90
38902;DHT22;24661;53.566;9.910;2022-10-30T02:59:18;12.80;99.90
38902;DHT22;24661;53.566;9.910;2022-10-30T03:01:45;12.80;99.90
38902;DHT22;24661;53.566;9.910;2022-10-30T03:04:10;12.80;99.90
38902;DHT22;24661;53.566;9.910;2022-10-30T03:06:36;12.80;99.90
38902;DHT22;24661;53.566;9.910;2022-10-30T03:09:01;12.80;99.90
38902;DHT22;24661;53.566;9.910;2022-10-30T03:11:27;12.70;99.90
38902;DHT22;24661;53.566;9.910;2022-10-30T03:13:53;12.70;99.90
38902;DHT22;24661;53.566;9.910;2022-10-30T03:16:22;12.80;99.90
38902;DHT22;24661;53.566;9.910;2022-10-30T03:18:48;12.70;99.90
38902;DHT22;24661;53.566;9.910;2022-10-30T03:21:16;12.70;99.90
38902;DHT22;24661;53.566;9.910;2022-10-30T03:23:42;12.70;99.90
38902;DHT22;24661;53.566;9.910;2022-10-30T03:26:08;12.70;99.90
38902;DHT22;24661;53.566;9.910;2022-10-30T03:28:34;12.70;99.90
38902;DHT22;24661;53.566;9.910;2022-10-30T03:31:05;12.70;99.90
38902;DHT22;24661;53.566;9.910;2022-10-30T03:33:32;12.70;99.90
38902;DHT22;24661;53.566;9.910;2022-10-30T03:35:58;12.60;99.90
38902;DHT22;24661;53.566;9.910;2022-10-30T03:38:24;12.60;99.90
38902;DHT22;24661;53.566;9.910;2022-10-30T03:40:50;12.60;99.90
38902;DHT22;24661;53.566;9.910;2022-10-30T03:43:16;12.60;99.90
38902;DHT22;24661;53.566;9.910;2022-10-30T03:45:48;12.50;99.90
38902;DHT22;24661;53.566;9.910;2022-10-30T03:48:15;12.50;99.90
38902;DHT22;24661;53.566;9.910;2022-10-30T03:50:41;12.40;99.90
38902;DHT22;24661;53.566;9.910;2022-10-30T03:53:07;12.40;99.90
38902;DHT22;24661;53.566;9.910;2022-10-30T03:55:32;12.30;99.90
38902;DHT22;24661;53.566;9.910;2022-10-30T03:57:58;12.30;99.90
38902;DHT22;24661;53.566;9.910;2022-10-30T04:00:23;12.20;99.90
38902;DHT22;24661;53.566;9.910;2022-10-30T04:02:51;12.20;99.90
38902;DHT22;24661;53.566;9.910;2022-10-30T04:05:19;12.20;99.90
38902;DHT22;24661;53.566;9.910;2022-10-30T04:07:45;12.20;99.90
38902;DHT22;24661;53.566;9.910;2022-10-30T04:10:12;12.20;99.90
38902;DHT22;24661;53.566;9.910;2022-10-30T04:12:38;12.20;99.90
38902;DHT22;24661;53.566;9.910;2022-10-30T04:15:05;12.30;99.90
38902;DHT22;24661;53.566;9.910;2022-10-30T04:17:31;12.30;99.90
38902;DHT22;24661;53.566;9.910;2022-10-30T04:19:57;12.30;99.90
38902;DHT22;24661;53.566;9.910;2022-10-30T04:22:22;12.30;99.90
38902;DHT22;24661;53.566;9.910;2022-10-30T04:24:48;12.30;99.90
38902;DHT22;24661;53.566;9.910;2022-10-30T04:27:14;12.40;99.90
38902;DHT22;24661;53.566;9.910;2022-10-30T04:29:40;12.40;99.90
38902;DHT22;24661;53.566;9.910;2022-10-30T04:32:09;12.40;99.90
38902;DHT22;24661;53.566;9.910;2022-10-30T04:34:35;12.40;99.90
38902;DHT22;24661;53.566;9.910;2022-10-30T04:37:01;12.40;99.90
38902;DHT22;24661;53.566;9.910;2022-10-30T04:39:26;12.40;99.90
38902;DHT22;24661;53.566;9.910;2022-10-30T04:41:52;12.40;99.90
38902;DHT22;24661;53.566;9.910;2022-10-30T04:44:17;12.40;99.90
38902;DHT22;24661;53.566;9.910;2022-10-30T04:46:43;12.40;99.90
38902;DHT22;24661;53.566;9.910;2022-10-30T04:49:08;12.50;99.90
38902;DHT22;24661;53.566;9.910;2022-10-30T04:51:34;12.50;99.90
38902;DHT22;24661;53.566;9.910;2022-10-30T04:54:00;12.50;99.90
38902;DHT22;24661;53.566;9.910;2022-10-30T04:56:25;12.50;99.90
38902;DHT22;24661;53.566;9.910;2022-10-30T04:58:51;14.10;99.90
38902;DHT22;24661;53.566;9.910;2022-10-30T05:01:18;12.60;99.90
38902;DHT22;24661;53.566;9.910;2022-10-30T05:03:43;12.60;99.90
38902;DHT22;24661;53.566;9.910;2022-10-30T05:06:21;12.60;99.90
38902;DHT22;24661;53.566;9.910;2022-10-30T05:08:48;12.70;99.90
38902;DHT22;24661;53.566;9.910;2022-10-30T05:11:14;12.70;99.90
38902;DHT22;24661;53.566;9.910;2022-10-30T05:13:39;13.50;99.90
38902;DHT22;24661;53.566;9.910;2022-10-30T05:16:05;12.70;99.90
38902;DHT22;24661;53.566;9.910;2022-10-30T05:18:31;12.80;99.90
38902;DHT22;24661;53.566;9.910;2022-10-30T05:20:56;12.80;99.90
38902;DHT22;24661;53.566;9.910;2022-10-30T05:23:22;12.90;99.90
38902;DHT22;24661;53.566;9.910;2022-10-30T05:25:48;12.90;99.90
38902;DHT22;24661;53.566;9.910;2022-10-30T05:28:13;12.90;99.90
38902;DHT22;24661;53.566;9.910;2022-10-30T05:30:39;12.90;99.90
38902;DHT22;24661;53.566;9.910;2022-10-30T05:33:06;12.90;99.90
38902;DHT22;24661;53.566;9.910;2022-10-30T05:35:33;14.80;99.90
38902;DHT22;24661;53.566;9.910;2022-10-30T05:38:00;14.00;99.90
38902;DHT22;24661;53.566;9.910;2022-10-30T05:40:26;12.80;99.90
38902;DHT22;24661;53.566;9.910;2022-10-30T05:42:52;12.80;99.90
38902;DHT22;24661;53.566;9.910;2022-10-30T05:45:18;12.70;99.90
38902;DHT22;24661;53.566;9.910;2022-10-30T05:47:56;12.80;99.90
38902;DHT22;24661;53.566;9.910;2022-10-30T05:50:22;12.70;99.90
38902;DHT22;24661;53.566;9.910;2022-10-30T05:52:48;12.70;99.90
38902;DHT22;24661;53.566;9.910;2022-10-30T05:55:14;11.50;99.90
38902;DHT22;24661;53.566;9.910;2022-10-30T05:57:39;12.70;99.90
38902;DHT22;24661;53.566;9.910;2022-10-30T06:00:06;12.70;99.90
38902;DHT22;24661;53.566;9.910;2022-10-30T06:02:32;12.70;99.90
38902;DHT22;24661;53.566;9.910;2022-10-30T06:04:57;12.70;99.90
38902;DHT22;24661;53.566;9.910;2022-10-30T06:07:23;12.70;99.90
38902;DHT22;24661;53.566;9.910;2022-10-30T06:09:48;12.70;99.90
38902;DHT22;24661;53.566;9.910;2022-10-30T06:12:14;12.60;99.90
38902;DHT22;24661;53.566;9.910;2022-10-30T06:14:40;12.60;99.90
38902;DHT22;24661;53.566;9.910;2022-10-30T06:17:05;12.60;99.90
38902;DHT22;24661;53.566;9.910;2022-10-30T06:19:31;12.60;99.90
38902;DHT22;24661;53.566;9.910;2022-10-30T06:21:56;12.60;99.90
38902;DHT22;24661;53.566;9.910;2022-10-30T06:24:22;11.30;99.90
38902;DHT22;24661;53.566;9.910;2022-10-30T06:26:47;12.60;99.90
38902;DHT22;24661;53.566;9.910;2022-10-30T06:29:15;12.60;99.90
38902;DHT22;24661;53.566;9.910;2022-10-30T06:31:40;12.60;99.90
38902;DHT22;24661;53.566;9.910;2022-10-30T06:34:06;12.50;99.90
38902;DHT22;24661;53.566;9.910;2022-10-30T06:36:31;12.60;99.90
38902;DHT22;24661;53.566;9.910;2022-10-30T06:38:57;12.50;99.90
38902;DHT22;24661;53.566;9.910;2022-10-30T06:41:23;12.60;99.90
38902;DHT22;24661;53.566;9.910;2022-10-30T06:43:48;12.60;99.90
38902;DHT22;24661;53.566;9.910;2022-10-30T06:46:14;12.60;99.90
38902;DHT22;24661;53.566;9.910;2022-10-30T06:48:39;12.60;99.90
38902;DHT22;24661;53.566;9.910;2022-10-30T06:51:05;12.60;99.90
38902;DHT22;24661;53.566;9.910;2022-10-30T06:53:30;12.70;99.90
38902;DHT22;24661;53.566;9.910;2022-10-30T06:56:05;13.40;99.90
38902;DHT22;24661;53.566;9.910;2022-10-30T06:58:31;12.80;99.90
38902;DHT22;24661;53.566;9.910;2022-10-30T07:00:59;12.70;99.90
38902;DHT22;24661;53.566;9.910;2022-10-30T07:03:25;12.80;99.90
38902;DHT22;24661;53.566;9.910;2022-10-30T07:05:51;12.80;99.90
38902;DHT22;24661;53.566;9.910;2022-10-30T07:08:16;12.80;99.90
38902;DHT22;24661;53.566;9.910;2022-10-30T07:10:42;12.80;99.90
38902;DHT22;24661;53.566;9.910;2022-10-30T07:13:08;12.90;99.90
38902;DHT22;24661;53.566;9.910;2022-10-30T07:15:33;12.90;99.90
38902;DHT22;24661;53.566;9.910;2022-10-30T07:18:01;12.90;99.90
38902;DHT22;24661;53.566;9.910;2022-10-30T07:20:32;13.00;99.90
38902;DHT22;24661;53.566;9.910;2022-10-30T07:22:58;13.00;99.90
38902;DHT22;24661;53.566;9.910;2022-10-30T07:25:24;13.00;99.90
38902;DHT22;24661;53.566;9.910;2022-10-30T07:27:52;13.10;99.90
38902;DHT22;24661;53.566;9.910;2022-10-30T07:30:20;13.10;99.90
38902;DHT22;24661;53.566;9.910;2022-10-30T07:32:49;13.20;99.90
38902;DHT22;24661;53.566;9.910;2022-10-30T07:35:20;13.30;99.90
38902;DHT22;24661;53.566;9.910;2022-10-30T07:37:45;13.30;99.90
38902;DHT22;24661;53.566;9.910;2022-10-30T07:40:11;13.40;99.90
38902;DHT22;24661;53.566;9.910;2022-10-30T07:42:37;13.50;99.90
38902;DHT22;24661;53.566;9.910;2022-10-30T07:45:02;13.60;99.90
38902;DHT22;24661;53.566;9.910;2022-10-30T07:47:28;13.80;99.90
38902;DHT22;24661;53.566;9.910;2022-10-30T07:49:53;13.90;99.90
38902;DHT22;24661;53.566;9.910;2022-10-30T07:52:19;14.00;99.90
38902;DHT22;24661;53.566;9.910;2022-10-30T07:54:44;14.00;99.90
38902;DHT22;24661;53.566;9.910;2022-10-30T07:57:10;14.20;99.90
38902;DHT22;24661;53.566;9.910;2022-10-30T07:59:36;14.20;99.90
38902;DHT22;24661;53.566;9.910;2022-10-30T08:02:01;14.30;99.90
38902;DHT22;24661;53.566;9.910;2022-10-30T08:04:27;14.40;99.90
38902;DHT22;24661;53.566;9.910;2022-10-30T08:06:52;14.40;99.90
38902;DHT22;24661;53.566;9.910;2022-10-30T08:09:18;14.50;99.90
38902;DHT22;24661;53.566;9.910;2022-10-30T08:11:44;14.50;99.90
38902;DHT22;24661;53.566;9.910;2022-10-30T08:14:09;14.60;99.90
38902;DHT22;24661;53.566;9.910;2022-10-30T08:16:35;14.60;99.90
38902;DHT22;24661;53.566;9.910;2022-10-30T08:19:00;15.30;99.90
38902;DHT22;24661;53.566;9.910;2022-10-30T08:21:26;14.70;99.90
38902;DHT22;24661;53.566;9.910;2022-10-30T08:23:52;14.70;99.90
38902;DHT22;24661;53.566;9.910;2022-10-30T08:26:18;14.80;99.90
38902;DHT22;24661;53.566;9.910;2022-10-30T08:28:43;14.70;99.90
38902;DHT22;24661;53.566;9.910;2022-10-30T08:31:09;14.60;99.90
38902;DHT22;24661;53.566;9.910;2022-10-30T08:33:34;14.80;99.90
38902;DHT22;24661;53.566;9.910;2022-10-30T08:36:00;14.80;99.90
38902;DHT22;24661;53.566;9.910;2022-10-30T08:38:30;14.80;99.90
38902;DHT22;24661;53.566;9.910;2022-10-30T08:40:55;14.90;99.90
38902;DHT22;24661;53.566;9.910;2022-10-30T08:43:21;14.90;99.90
38902;DHT22;24661;53.566;9.910;2022-10-30T08:45:47;14.90;99.90
38902;DHT22;24661;53.566;9.910;2022-10-30T08:48:16;15.00;99.90
38902;DHT22;24661;53.566;9.910;2022-10-30T08:50:42;15.00;99.90
38902;DHT22;24661;53.566;9.910;2022-10-30T08:53:13;15.10;99.90
38902;DHT22;24661;53.566;9.910;2022-10-30T08:55:39;15.10;99.90
38902;DHT22;24661;53.566;9.910;2022-10-30T08:58:05;15.20;99.90
38902;DHT22;24661;53.566;9.910;2022-10-30T09:00:30;15.30;99.90
38902;DHT22;24661;53.566;9.910;2022-10-30T09:02:56;15.30;99.90
38902;DHT22;24661;53.566;9.910;2022-10-30T09:05:21;15.40;99.90
38902;DHT22;24661;53.566;9.910;2022-10-30T09:07:47;15.50;99.90
38902;DHT22;24661;53.566;9.910;2022-10-30T09:10:13;15.60;99.90
38902;DHT22;24661;53.566;9.910;2022-10-30T09:12:39;15.70;99.90
38902;DHT22;24661;53.566;9.910;2022-10-30T09:15:05;15.80;99.90
38902;DHT22;24661;53.566;9.910;2022-10-30T09:17:31;15.90;99.90
38902;DHT22;24661;53.566;9.910;2022-10-30T09:19:57;15.80;99.90
38902;DHT22;24661;53.566;9.910;2022-10-30T09:22:23;16.00;99.90
38902;DHT22;24661;53.566;9.910;2022-10-30T09:24:48;16.10;99.90
38902;DHT22;24661;53.566;9.910;2022-10-30T09:27:14;16.20;99.90
38902;DHT22;24661;53.566;9.910;2022-10-30T09:29:40;16.20;99.90
38902;DHT22;24661;53.566;9.910;2022-10-30T09:32:05;16.30;99.90
38902;DHT22;24661;53.566;9.910;2022-10-30T09:34:35;16.40;99.90
38902;DHT22;24661;53.566;9.910;2022-10-30T09:37:01;16.40;99.90
38902;DHT22;24661;53.566;9.910;2022-10-30T09:39:27;16.50;99.90
38902;DHT22;24661;53.566;9.910;2022-10-30T09:58:28;17.10;99.90
38902;DHT22;24661;53.566;9.910;2022-10-30T10:01:16;17.10;99.90
38902;DHT22;24661;53.566;9.910;2022-10-30T10:06:24;17.20;99.90
38902;DHT22;24661;53.566;9.910;2022-10-30T10:09:01;17.30;99.90
38902;DHT22;24661;53.566;9.910;2022-10-30T10:11:37;17.40;99.90
38902;DHT22;24661;53.566;9.910;2022-10-30T10:14:26;17.40;99.90
38902;DHT22;24661;53.566;9.910;2022-10-30T10:16:55;17.50;99.90
38902;DHT22;24661;53.566;9.910;2022-10-30T10:19:32;17.80;99.90
38902;DHT22;24661;53.566;9.910;2022-10-30T10:22:01;17.60;99.90
38902;DHT22;24661;53.566;9.910;2022-10-30T10:24:29;17.70;99.90
38902;DHT22;24661;53.566;9.910;2022-10-30T10:29:54;17.80;99.90
38902;DHT22;24661;53.566;9.910;2022-10-30T10:40:25;18.00;99.90
38902;DHT22;24661;53.566;9.910;2022-10-30T10:46:18;18.20;99.90
38902;DHT22;24661;53.566;9.910;2022-10-30T10:49:44;18.20;99.90
38902;DHT22;24661;53.566;9.910;2022-10-30T10:52:01;18.20;99.90
38902;DHT22;24661;53.566;9.910;2022-10-30T10:54:54;19.30;99.90
38902;DHT22;24661;53.566;9.910;2022-10-30T10:57:36;18.30;99.90
38902;DHT22;24661;53.566;9.910;2022-10-30T11:00:07;18.30;99.90
38902;DHT22;24661;53.566;9.910;2022-10-30T11:02:42;18.30;99.90
38902;DHT22;24661;53.566;9.910;2022-10-30T11:05:25;18.40;99.90
38902;DHT22;24661;53.566;9.910;2022-10-30T11:07:53;18.50;99.90
38902;DHT22;24661;53.566;9.910;2022-10-30T11:10:21;18.60;99.90
38902;DHT22;24661;53.566;9.910;2022-10-30T11:12:48;18.50;99.90
38902;DHT22;24661;53.566;9.910;2022-10-30T11:15:22;18.60;99.90
38902;DHT22;24661;53.566;9.910;2022-10-30T11:17:59;18.60;99.90
38902;DHT22;24661;53.566;9.910;2022-10-30T11:20:55;18.70;99.90
38902;DHT22;24661;53.566;9.910;2022-10-30T11:23:33;18.70;99.90
38902;DHT22;24661;53.566;9.910;2022-10-30T11:26:00;18.90;99.90
38902;DHT22;24661;53.566;9.910;2022-10-30T11:28:41;18.80;99.90
38902;DHT22;24661;53.566;9.910;2022-10-30T11:31:28;18.80;99.90
38902;DHT22;24661;53.566;9.910;2022-10-30T11:36:38;18.90;99.90
38902;DHT22;24661;53.566;9.910;2022-10-30T11:39:10;19.00;99.90
38902;DHT22;24661;53.566;9.910;2022-10-30T11:41:37;19.00;99.90
38902;DHT22;24661;53.566;9.910;2022-10-30T11:44:04;19.10;99.90
38902;DHT22;24661;53.566;9.910;2022-10-30T11:46:33;19.10;99.90
38902;DHT22;24661;53.566;9.910;2022-10-30T11:48:59;19.20;99.90
38902;DHT22;24661;53.566;9.910;2022-10-30T11:51:37;19.20;99.90
38902;DHT22;24661;53.566;9.910;2022-10-30T11:54:04;19.30;99.90
38902;DHT22;24661;53.566;9.910;2022-10-30T11:56:33;19.30;99.90
38902;DHT22;24661;53.566;9.910;2022-10-30T11:59:00;19.50;99.90
38902;DHT22;24661;53.566;9.910;2022-10-30T12:01:33;19.30;99.90
38902;DHT22;24661;53.566;9.910;2022-10-30T12:04:22;19.40;99.90
38902;DHT22;24661;53.566;9.910;2022-10-30T12:09:42;19.50;99.90
38902;DHT22;24661;53.566;9.910;2022-10-30T12:12:27;19.50;99.90
38902;DHT22;24661;53.566;9.910;2022-10-30T12:14:54;19.50;99.90
38902;DHT22;24661;53.566;9.910;2022-10-30T12:17:20;19.50;99.90
38902;DHT22;24661;53.566;9.910;2022-10-30T12:19:52;19.60;99.90
38902;DHT22;24661;53.566;9.910;2022-10-30T12:22:24;19.60;99.90
38902;DHT22;24661;53.566;9.910;2022-10-30T12:24:51;19.60;99.90
38902;DHT22;24661;53.566;9.910;2022-10-30T12:27:17;19.70;99.90
38902;DHT22;24661;53.566;9.910;2022-10-30T12:32:33;19.70;99.90
38902;DHT22;24661;53.566;9.910;2022-10-30T12:35:05;19.70;99.90
38902;DHT22;24661;53.566;9.910;2022-10-30T12:37:40;19.70;99.90
38902;DHT22;24661;53.566;9.910;2022-10-30T12:40:22;19.60;99.90
38902;DHT22;24661;53.566;9.910;2022-10-30T12:43:16;19.60;99.90
38902;DHT22;24661;53.566;9.910;2022-10-30T12:45:46;19.60;99.90
38902;DHT22;24661;53.566;9.910;2022-10-30T12:51:03;19.50;99.90
38902;DHT22;24661;53.566;9.910;2022-10-30T12:53:54;19.50;99.90
38902;DHT22;24661;53.566;9.910;2022-10-30T12:56:37;20.70;99.90
38902;DHT22;24661;53.566;9.910;2022-10-30T13:04:46;21.40;99.90
38902;DHT22;24661;53.566;9.910;2022-10-30T13:07:34;19.50;99.90
38902;DHT22;24661;53.566;9.910;2022-10-30T13:12:39;19.40;99.90
38902;DHT22;24661;53.566;9.910;2022-10-30T13:15:34;19.50;99.90
38902;DHT22;24661;53.566;9.910;2022-10-30T13:18:20;19.40;99.90
38902;DHT22;24661;53.566;9.910;2022-10-30T13:26:46;19.40;99.90
38902;DHT22;24661;53.566;9.910;2022-10-30T13:40:50;19.40;99.90
38902;DHT22;24661;53.566;9.910;2022-10-30T13:51:42;19.30;99.90
38902;DHT22;24661;53.566;9.910;2022-10-30T13:54:18;19.30;99.90
38902;DHT22;24661;53.566;9.910;2022-10-30T13:56:47;19.20;99.90
38902;DHT22;24661;53.566;9.910;2022-10-30T14:02:24;19.10;99.90
38902;DHT22;24661;53.566;9.910;2022-10-30T14:04:58;19.10;99.90
38902;DHT22;24661;53.566;9.910;2022-10-30T14:07:36;19.00;99.90
38902;DHT22;24661;53.566;9.910;2022-10-30T14:10:12;18.90;99.90
38902;DHT22;24661;53.566;9.910;2022-10-30T14:15:55;18.90;99.90
38902;DHT22;24661;53.566;9.910;2022-10-30T14:24:32;18.70;99.90
38902;DHT22;24661;53.566;9.910;2022-10-30T14:34:58;18.40;99.90
38902;DHT22;24661;53.566;9.910;2022-10-30T14:39:57;17.20;99.90
38902;DHT22;24661;53.566;9.910;2022-10-30T14:42:50;18.90;99.90
38902;DHT22;24661;53.566;9.910;2022-10-30T14:45:39;19.70;99.90
38902;DHT22;24661;53.566;9.910;2022-10-30T14:48:43;18.20;99.90
38902;DHT22;24661;53.566;9.910;2022-10-30T14:54:32;18.00;99.90
38902;DHT22;24661;53.566;9.910;2022-10-30T15:05:55;17.70;99.90
38902;DHT22;24661;53.566;9.910;2022-10-30T15:17:48;17.30;99.90
38902;DHT22;24661;53.566;9.910;2022-10-30T15:20:31;17.20;99.90
38902;DHT22;24661;53.566;9.910;2022-10-30T15:23:11;17.10;99.90
38902;DHT22;24661;53.566;9.910;2022-10-30T15:25:49;17.00;99.90
38902;DHT22;24661;53.566;9.910;2022-10-30T15:28:18;17.00;99.90
38902;DHT22;24661;53.566;9.910;2022-10-30T15:33:24;16.80;99.90
38902;DHT22;24661;53.566;9.910;2022-10-30T15:35:50;16.70;99.90
38902;DHT22;24661;53.566;9.910;2022-10-30T15:38:15;16.60;99.90
38902;DHT22;24661;53.566;9.910;2022-10-30T15:40:41;16.50;99.90
38902;DHT22;24661;53.566;9.910;2022-10-30T15:43:11;16.40;99.90
38902;DHT22;24661;53.566;9.910;2022-10-30T15:45:40;16.30;99.90
38902;DHT22;24661;53.566;9.910;2022-10-30T15:48:23;16.20;99.90
38902;DHT22;24661;53.566;9.910;2022-10-30T15:51:03;16.20;99.90
38902;DHT22;24661;53.566;9.910;2022-10-30T15:53:37;16.00;99.90
38902;DHT22;24661;53.566;9.910;2022-10-30T15:56:04;16.00;99.90
38902;DHT22;24661;53.566;9.910;2022-10-30T15:58:33;15.90;99.90
38902;DHT22;24661;53.566;9.910;2022-10-30T16:01:01;15.80;99.90
38902;DHT22;24661;53.566;9.910;2022-10-30T16:03:28;15.80;99.90
38902;DHT22;24661;53.566;9.910;2022-10-30T16:06:14;15.70;99.90
38902;DHT22;24661;53.566;9.910;2022-10-30T16:08:46;15.70;99.90
38902;DHT22;24661;53.566;9.910;2022-10-30T16:11:13;15.60;99.90
38902;DHT22;24661;53.566;9.910;2022-10-30T16:13:40;15.50;99.90
38902;DHT22;24661;53.566;9.910;2022-10-30T16:16:11;15.50;99.90
38902;DHT22;24661;53.566;9.910;2022-10-30T16:18:38;15.40;99.90
38902;DHT22;24661;53.566;9.910;2022-10-30T16:21:08;15.40;99.90
38902;DHT22;24661;53.566;9.910;2022-10-30T16:23:41;15.20;99.90
38902;DHT22;24661;53.566;9.910;2022-10-30T16:26:28;15.20;99.90
38902;DHT22;24661;53.566;9.910;2022-10-30T16:29:22;15.20;99.90
38902;DHT22;24661;53.566;9.910;2022-10-30T16:31:46;15.10;99.90
38902;DHT22;24661;53.566;9.910;2022-10-30T16:34:29;15.00;99.90
38902;DHT22;24661;53.566;9.910;2022-10-30T16:36:56;15.00;99.90
38902;DHT22;24661;53.566;9.910;2022-10-30T16:39:24;14.90;99.90
38902;DHT22;24661;53.566;9.910;2022-10-30T16:41:50;14.90;99.90
38902;DHT22;24661;53.566;9.910;2022-10-30T16:44:29;14.90;99.90
38902;DHT22;24661;53.566;9.910;2022-10-30T16:52:15;14.70;99.90
38902;DHT22;24661;53.566;9.910;2022-10-30T16:54:46;14.70;99.90
38902;DHT22;24661;53.566;9.910;2022-10-30T16:57:21;14.60;99.90
38902;DHT22;24661;53.566;9.910;2022-10-30T16:59:51;14.60;99.90
38902;DHT22;24661;53.566;9.910;2022-10-30T17:02:22;14.60;99.90
38902;DHT22;24661;53.566;9.910;2022-10-30T17:04:54;14.50;99.90
38902;DHT22;24661;53.566;9.910;2022-10-30T17:07:24;14.50;99.90
38902;DHT22;24661;53.566;9.910;2022-10-30T17:09:52;14.50;99.90
38902;DHT22;24661;53.566;9.910;2022-10-30T17:15:00;14.40;99.90
38902;DHT22;24661;53.566;9.910;2022-10-30T17:17:32;14.40;99.90
38902;DHT22;24661;53.566;9.910;2022-10-30T17:20:00;14.30;99.90
38902;DHT22;24661;53.566;9.910;2022-10-30T17:22:28;14.30;99.90
38902;DHT22;24661;53.566;9.910;2022-10-30T17:24:56;14.30;99.90
38902;DHT22;24661;53.566;9.910;2022-10-30T17:29:51;14.20;99.90
38902;DHT22;24661;53.566;9.910;2022-10-30T17:32:19;14.20;99.90
38902;DHT22;24661;53.566;9.910;2022-10-30T17:34:46;14.20;99.90
38902;DHT22;24661;53.566;9.910;2022-10-30T17:37:12;14.10;99.90
38902;DHT22;24661;53.566;9.910;2022-10-30T17:39:38;14.10;99.90
38902;DHT22;24661;53.566;9.910;2022-10-30T17:42:04;14.10;99.90
38902;DHT22;24661;53.566;9.910;2022-10-30T17:44:32;14.10;99.90
38902;DHT22;24661;53.566;9.910;2022-10-30T17:47:00;14.00;99.90
38902;DHT22;24661;53.566;9.910;2022-10-30T17:49:32;14.00;99.90
38902;DHT22;24661;53.566;9.910;2022-10-30T17:51:58;14.00;99.90
38902;DHT22;24661;53.566;9.910;2022-10-30T17:54:24;14.00;99.90
38902;DHT22;24661;53.566;9.910;2022-10-30T17:56:50;14.00;99.90
38902;DHT22;24661;53.566;9.910;2022-10-30T17:59:16;14.00;99.90
38902;DHT22;24661;53.566;9.910;2022-10-30T18:01:41;13.90;99.90
38902;DHT22;24661;53.566;9.910;2022-10-30T18:04:15;13.90;99.90
38902;DHT22;24661;53.566;9.910;2022-10-30T18:06:42;14.00;99.90
38902;DHT22;24661;53.566;9.910;2022-10-30T18:09:08;13.90;99.90
38902;DHT22;24661;53.566;9.910;2022-10-30T18:11:33;13.90;99.90
38902;DHT22;24661;53.566;9.910;2022-10-30T18:13:59;13.90;99.90
38902;DHT22;24661;53.566;9.910;2022-10-30T18:16:25;14.00;99.90
38902;DHT22;24661;53.566;9.910;2022-10-30T18:18:51;13.90;99.90